createdAt,value
2017-03-31T00:00:10.951Z,927.4
2017-03-31T00:00:39.222Z,927.39
2017-03-31T00:01:07.425Z,927.42
2017-03-31T00:01:35.695Z,927.43
2017-03-31T00:02:03.904Z,927.48
2017-03-31T00:02:32.208Z,927.43
2017-03-31T00:03:00.388Z,927.41
2017-03-31T00:03:28.566Z,927.46
2017-03-31T00:03:56.747Z,927.44
2017-03-31T00:05:07.888Z,927.53
2017-03-31T00:05:36.171Z,927.48
2017-03-31T00:06:04.451Z,927.49
2017-03-31T00:06:32.722Z,927.47
2017-03-31T00:07:00.915Z,927.48
2017-03-31T00:07:29.171Z,927.45
2017-03-31T00:07:57.372Z,927.52
2017-03-31T00:08:25.491Z,927.5
2017-03-31T00:08:53.765Z,927.5
2017-03-31T00:09:21.946Z,927.51
2017-03-31T00:09:50.126Z,927.47
2017-03-31T00:11:01.452Z,927.51
2017-03-31T00:11:29.982Z,927.53
2017-03-31T00:11:58.260Z,927.54
2017-03-31T00:12:26.533Z,927.47
2017-03-31T00:12:54.721Z,927.51
2017-03-31T00:13:22.981Z,927.56
2017-03-31T00:13:51.277Z,927.6
2017-03-31T00:14:19.586Z,927.54
2017-03-31T00:14:47.859Z,927.53
2017-03-31T00:15:16.040Z,927.54
2017-03-31T00:15:44.311Z,927.53
2017-03-31T00:16:55.629Z,927.56
2017-03-31T00:17:23.727Z,927.55
2017-03-31T00:17:51.911Z,927.55
2017-03-31T00:18:20.187Z,927.57
2017-03-31T00:18:48.467Z,927.55
2017-03-31T00:19:16.726Z,927.54
2017-03-31T00:19:44.924Z,927.56
2017-03-31T00:20:13.130Z,927.51
2017-03-31T00:20:41.406Z,927.56
2017-03-31T00:21:09.589Z,927.57
2017-03-31T00:21:37.859Z,927.6
2017-03-31T00:22:48.901Z,927.55
2017-03-31T00:23:17.093Z,927.6
2017-03-31T00:23:45.277Z,927.57
2017-03-31T00:24:13.359Z,927.59
2017-03-31T00:24:41.666Z,927.62
2017-03-31T00:25:09.983Z,927.61
2017-03-31T00:25:38.183Z,927.54
2017-03-31T00:26:06.490Z,927.55
2017-03-31T00:26:34.765Z,927.56
2017-03-31T00:27:02.853Z,927.55
2017-03-31T00:27:30.937Z,927.54
2017-03-31T00:28:42.259Z,927.5
2017-03-31T00:29:10.548Z,927.53
2017-03-31T00:29:38.639Z,927.51
2017-03-31T00:30:06.819Z,927.5
2017-03-31T00:30:35.104Z,927.51
2017-03-31T00:31:03.175Z,927.57
2017-03-31T00:31:31.375Z,927.54
2017-03-31T00:31:59.587Z,927.53
2017-03-31T00:32:27.858Z,927.54
2017-03-31T00:32:56.134Z,927.57
2017-03-31T00:33:24.230Z,927.56
2017-03-31T00:34:35.546Z,927.5
2017-03-31T00:35:03.842Z,927.55
2017-03-31T00:35:31.945Z,927.52
2017-03-31T00:36:00.215Z,927.56
2017-03-31T00:36:28.514Z,927.54
2017-03-31T00:36:56.771Z,927.56
2017-03-31T00:37:24.969Z,927.55
2017-03-31T00:37:53.175Z,927.58
2017-03-31T00:38:21.463Z,927.57
2017-03-31T00:38:49.649Z,927.58
2017-03-31T00:39:17.822Z,927.6
2017-03-31T00:40:29.053Z,927.58
2017-03-31T00:40:57.355Z,927.57
2017-03-31T00:41:25.803Z,927.59
2017-03-31T00:41:53.891Z,927.59
2017-03-31T00:42:22.381Z,927.61
2017-03-31T00:42:50.538Z,927.62
2017-03-31T00:43:18.830Z,927.61
2017-03-31T00:43:47.141Z,927.61
2017-03-31T00:44:15.420Z,927.61
2017-03-31T00:44:43.693Z,927.62
2017-03-31T00:45:11.977Z,927.56
2017-03-31T00:46:23.114Z,927.59
2017-03-31T00:46:51.413Z,927.57
2017-03-31T00:47:19.613Z,927.57
2017-03-31T00:47:47.798Z,927.57
2017-03-31T00:48:16.081Z,927.56
2017-03-31T00:48:44.777Z,927.58
2017-03-31T00:49:12.983Z,927.58
2017-03-31T00:49:41.299Z,927.54
2017-03-31T00:50:09.584Z,927.57
2017-03-31T00:50:37.757Z,927.57
2017-03-31T00:51:06.033Z,927.59
2017-03-31T00:52:17.352Z,927.59
2017-03-31T00:52:45.544Z,927.56
2017-03-31T00:53:13.840Z,927.55
2017-03-31T00:53:42.024Z,927.56
2017-03-31T00:54:10.214Z,927.58
2017-03-31T00:54:38.576Z,927.55
2017-03-31T00:55:06.779Z,927.58
2017-03-31T00:55:35.002Z,927.62
2017-03-31T00:56:03.285Z,927.6
2017-03-31T00:56:31.458Z,927.63
2017-03-31T00:56:59.634Z,927.56
2017-03-31T00:58:10.861Z,927.55
2017-03-31T00:58:38.960Z,927.57
2017-03-31T00:59:07.146Z,927.56
2017-03-31T00:59:35.325Z,927.58
2017-03-31T01:00:03.613Z,927.6
2017-03-31T01:00:31.875Z,927.6
2017-03-31T01:01:00.167Z,927.63
2017-03-31T01:01:28.475Z,927.65
2017-03-31T01:01:56.754Z,927.62
2017-03-31T01:02:24.830Z,927.66
2017-03-31T01:02:52.912Z,927.62
2017-03-31T01:04:04.138Z,927.68
2017-03-31T01:04:32.236Z,927.64
2017-03-31T01:05:00.550Z,927.62
2017-03-31T01:05:28.690Z,927.64
2017-03-31T01:05:56.979Z,927.61
2017-03-31T01:06:25.237Z,927.68
2017-03-31T01:06:53.538Z,927.65
2017-03-31T01:07:21.846Z,927.67
2017-03-31T01:07:50.122Z,927.66
2017-03-31T01:08:18.205Z,927.66
2017-03-31T01:08:46.476Z,927.67
2017-03-31T01:09:57.805Z,927.68
2017-03-31T01:10:25.995Z,927.7
2017-03-31T01:10:54.274Z,927.65
2017-03-31T01:11:22.457Z,927.76
2017-03-31T01:11:50.738Z,927.7
2017-03-31T01:12:18.993Z,927.67
2017-03-31T01:12:47.285Z,927.6
2017-03-31T01:13:15.595Z,927.67
2017-03-31T01:13:43.867Z,927.7
2017-03-31T01:14:12.139Z,927.66
2017-03-31T01:14:40.220Z,927.69
2017-03-31T01:15:51.354Z,927.64
2017-03-31T01:16:19.357Z,927.76
2017-03-31T01:16:47.547Z,927.68
2017-03-31T01:17:15.821Z,927.66
2017-03-31T01:17:44.109Z,927.6
2017-03-31T01:18:12.457Z,927.67
2017-03-31T01:18:40.749Z,927.64
2017-03-31T01:19:09.058Z,927.64
2017-03-31T01:19:37.241Z,927.65
2017-03-31T01:20:05.413Z,927.62
2017-03-31T01:20:33.588Z,927.63
2017-03-31T01:21:44.904Z,927.62
2017-03-31T01:22:13.008Z,927.62
2017-03-31T01:22:41.287Z,927.68
2017-03-31T01:23:09.467Z,927.63
2017-03-31T01:23:37.754Z,927.59
2017-03-31T01:24:05.926Z,927.59
2017-03-31T01:24:34.137Z,927.64
2017-03-31T01:25:02.368Z,927.57
2017-03-31T01:25:30.602Z,927.57
2017-03-31T01:25:58.690Z,927.59
2017-03-31T01:26:26.676Z,927.58
2017-03-31T01:27:37.909Z,927.55
2017-03-31T01:28:06.117Z,927.55
2017-03-31T01:28:34.394Z,927.53
2017-03-31T01:29:02.572Z,927.54
2017-03-31T01:29:30.762Z,927.56
2017-03-31T01:29:59.124Z,927.56
2017-03-31T01:30:27.134Z,927.53
2017-03-31T01:30:55.435Z,927.53
2017-03-31T01:31:23.433Z,927.54
2017-03-31T01:31:51.694Z,927.53
2017-03-31T01:32:19.960Z,927.53
2017-03-31T01:33:31.193Z,927.54
2017-03-31T01:33:59.205Z,927.52
2017-03-31T01:34:27.396Z,927.47
2017-03-31T01:34:55.574Z,927.49
2017-03-31T01:35:23.767Z,927.51
2017-03-31T01:35:52.022Z,927.52
2017-03-31T01:36:20.224Z,927.48
2017-03-31T01:36:48.435Z,927.51
2017-03-31T01:37:16.532Z,927.51
2017-03-31T01:37:44.429Z,927.51
2017-03-31T01:38:12.709Z,927.5
2017-03-31T01:39:23.934Z,927.49
2017-03-31T01:39:52.128Z,927.49
2017-03-31T01:40:20.312Z,927.52
2017-03-31T01:40:48.588Z,927.48
2017-03-31T01:41:16.879Z,927.5
2017-03-31T01:41:45.222Z,927.47
2017-03-31T01:42:13.520Z,927.62
2017-03-31T01:42:41.737Z,927.52
2017-03-31T01:43:09.921Z,927.52
2017-03-31T01:43:38.102Z,927.53
2017-03-31T01:44:06.376Z,927.48
2017-03-31T01:45:17.700Z,927.5
2017-03-31T01:45:45.731Z,927.51
2017-03-31T01:46:14.009Z,927.53
2017-03-31T01:46:42.191Z,927.5
2017-03-31T01:47:10.381Z,927.51
2017-03-31T01:47:38.639Z,927.52
2017-03-31T01:48:06.844Z,927.53
2017-03-31T01:48:35.053Z,927.52
2017-03-31T01:49:03.333Z,927.53
2017-03-31T01:49:31.416Z,927.49
2017-03-31T01:49:59.504Z,927.49
2017-03-31T01:51:10.821Z,927.46
2017-03-31T01:51:39.110Z,927.48
2017-03-31T01:52:07.440Z,927.44
2017-03-31T01:52:35.527Z,927.42
2017-03-31T01:53:03.811Z,927.4
2017-03-31T01:53:32.063Z,927.42
2017-03-31T01:54:00.265Z,927.43
2017-03-31T01:54:28.296Z,927.45
2017-03-31T01:54:56.577Z,927.41
2017-03-31T01:55:24.847Z,927.42
2017-03-31T01:55:53.113Z,927.38
2017-03-31T01:57:04.439Z,927.38
2017-03-31T01:57:32.636Z,927.41
2017-03-31T01:58:00.909Z,927.38
2017-03-31T01:58:29.093Z,927.39
2017-03-31T01:58:57.281Z,927.37
2017-03-31T01:59:25.535Z,927.4
2017-03-31T01:59:53.641Z,927.39
2017-03-31T02:00:21.970Z,927.37
2017-03-31T02:00:50.240Z,927.42
2017-03-31T02:01:18.416Z,927.38
2017-03-31T02:01:46.322Z,927.41
2017-03-31T02:02:57.453Z,927.38
2017-03-31T02:03:25.556Z,927.39
2017-03-31T02:03:53.649Z,927.41
2017-03-31T02:04:21.923Z,927.46
2017-03-31T02:04:50.207Z,927.47
2017-03-31T02:05:18.459Z,927.48
2017-03-31T02:05:46.755Z,927.46
2017-03-31T02:06:15.063Z,927.49
2017-03-31T02:06:43.155Z,927.47
2017-03-31T02:07:11.325Z,927.48
2017-03-31T02:07:39.436Z,927.51
2017-03-31T02:08:50.725Z,927.47
2017-03-31T02:09:18.826Z,927.51
2017-03-31T02:09:47.017Z,927.49
2017-03-31T02:10:15.292Z,927.53
2017-03-31T02:10:43.484Z,927.55
2017-03-31T02:11:11.651Z,927.53
2017-03-31T02:11:39.950Z,927.48
2017-03-31T02:12:08.259Z,927.59
2017-03-31T02:12:36.437Z,927.66
2017-03-31T02:13:04.518Z,927.51
2017-03-31T02:13:32.696Z,927.46
2017-03-31T02:14:44.018Z,927.54
2017-03-31T02:15:12.119Z,927.54
2017-03-31T02:15:40.401Z,927.52
2017-03-31T02:16:08.584Z,927.55
2017-03-31T02:16:36.865Z,927.5
2017-03-31T02:17:05.120Z,927.5
2017-03-31T02:17:33.414Z,927.5
2017-03-31T02:18:01.921Z,927.49
2017-03-31T02:18:30.201Z,927.51
2017-03-31T02:18:58.383Z,927.48
2017-03-31T02:19:26.561Z,927.49
2017-03-31T02:20:37.801Z,927.49
2017-03-31T02:21:06.082Z,927.41
2017-03-31T02:21:34.264Z,927.53
2017-03-31T02:22:02.443Z,927.5
2017-03-31T02:22:30.731Z,927.5
2017-03-31T02:22:58.987Z,927.46
2017-03-31T02:23:27.282Z,927.49
2017-03-31T02:23:55.594Z,927.52
2017-03-31T02:24:23.864Z,927.51
2017-03-31T02:24:52.048Z,927.51
2017-03-31T02:25:20.319Z,927.48
2017-03-31T02:26:31.552Z,927.52
2017-03-31T02:26:59.745Z,927.52
2017-03-31T02:27:27.933Z,927.48
2017-03-31T02:27:56.209Z,927.52
2017-03-31T02:28:24.488Z,927.46
2017-03-31T02:28:52.842Z,927.46
2017-03-31T02:29:21.046Z,927.5
2017-03-31T02:29:49.252Z,927.49
2017-03-31T02:30:17.432Z,927.51
2017-03-31T02:30:45.611Z,927.47
2017-03-31T02:31:13.699Z,927.48
2017-03-31T02:32:25.024Z,927.48
2017-03-31T02:32:53.030Z,927.49
2017-03-31T02:33:21.310Z,927.5
2017-03-31T02:33:49.396Z,927.52
2017-03-31T02:34:17.585Z,927.5
2017-03-31T02:34:45.841Z,927.44
2017-03-31T02:35:14.047Z,927.48
2017-03-31T02:35:42.355Z,927.47
2017-03-31T02:36:10.626Z,927.45
2017-03-31T02:36:38.804Z,927.44
2017-03-31T02:37:07.076Z,927.43
2017-03-31T02:38:18.302Z,927.45
2017-03-31T02:38:46.496Z,927.51
2017-03-31T02:39:14.769Z,927.47
2017-03-31T02:39:43.045Z,927.48
2017-03-31T02:40:11.330Z,927.47
2017-03-31T02:40:39.677Z,927.48
2017-03-31T02:41:07.881Z,927.44
2017-03-31T02:41:36.091Z,927.42
2017-03-31T02:42:04.363Z,927.43
2017-03-31T02:42:32.633Z,927.48
2017-03-31T02:43:00.899Z,927.38
2017-03-31T02:44:12.223Z,927.42
2017-03-31T02:44:40.323Z,927.47
2017-03-31T02:45:08.806Z,927.41
2017-03-31T02:45:36.989Z,927.39
2017-03-31T02:46:05.274Z,927.37
2017-03-31T02:46:33.624Z,927.4
2017-03-31T02:47:01.920Z,927.37
2017-03-31T02:47:30.230Z,927.33
2017-03-31T02:47:58.409Z,927.37
2017-03-31T02:48:26.583Z,927.35
2017-03-31T02:48:54.855Z,927.46
2017-03-31T02:50:05.988Z,927.32
2017-03-31T02:50:34.180Z,927.34
2017-03-31T02:51:02.364Z,927.34
2017-03-31T02:51:30.638Z,927.37
2017-03-31T02:51:58.923Z,927.36
2017-03-31T02:52:27.179Z,927.37
2017-03-31T02:52:55.378Z,927.37
2017-03-31T02:53:23.592Z,927.34
2017-03-31T02:53:51.864Z,927.35
2017-03-31T02:54:19.946Z,927.36
2017-03-31T02:54:48.031Z,927.36
2017-03-31T02:55:59.257Z,927.35
2017-03-31T02:56:27.549Z,927.39
2017-03-31T02:56:55.640Z,927.37
2017-03-31T02:57:23.913Z,927.43
2017-03-31T02:57:52.202Z,927.38
2017-03-31T02:58:20.551Z,927.39
2017-03-31T02:58:48.842Z,927.4
2017-03-31T02:59:17.152Z,927.44
2017-03-31T02:59:45.144Z,927.35
2017-03-31T03:00:13.321Z,927.41
2017-03-31T03:00:41.595Z,927.42
2017-03-31T03:01:52.914Z,927.4
2017-03-31T03:02:21.106Z,927.44
2017-03-31T03:02:49.381Z,927.42
2017-03-31T03:03:17.564Z,927.43
2017-03-31T03:03:45.848Z,927.45
2017-03-31T03:04:14.006Z,927.45
2017-03-31T03:04:42.302Z,927.48
2017-03-31T03:05:10.515Z,927.47
2017-03-31T03:05:38.694Z,927.47
2017-03-31T03:06:06.779Z,927.5
2017-03-31T03:06:34.955Z,927.47
2017-03-31T03:07:46.271Z,927.47
2017-03-31T03:08:14.558Z,927.51
2017-03-31T03:08:42.833Z,927.44
2017-03-31T03:09:11.007Z,927.47
2017-03-31T03:09:39.107Z,927.43
2017-03-31T03:10:07.459Z,927.48
2017-03-31T03:10:35.755Z,927.47
2017-03-31T03:11:03.965Z,927.47
2017-03-31T03:11:32.233Z,927.43
2017-03-31T03:12:00.412Z,927.47
2017-03-31T03:12:28.686Z,927.51
2017-03-31T03:13:40.007Z,927.47
2017-03-31T03:14:08.197Z,927.45
2017-03-31T03:14:36.385Z,927.49
2017-03-31T03:15:04.560Z,927.48
2017-03-31T03:15:32.849Z,927.49
2017-03-31T03:16:01.103Z,927.46
2017-03-31T03:16:29.306Z,927.47
2017-03-31T03:16:57.615Z,927.46
2017-03-31T03:17:25.891Z,927.43
2017-03-31T03:17:53.976Z,927.4
2017-03-31T03:18:22.150Z,927.43
2017-03-31T03:19:33.378Z,927.43
2017-03-31T03:20:01.570Z,927.42
2017-03-31T03:20:29.850Z,927.43
2017-03-31T03:20:58.126Z,927.43
2017-03-31T03:21:26.407Z,927.43
2017-03-31T03:21:54.749Z,927.4
2017-03-31T03:22:23.043Z,927.45
2017-03-31T03:22:51.255Z,927.39
2017-03-31T03:23:19.439Z,927.42
2017-03-31T03:23:47.520Z,927.37
2017-03-31T03:24:15.794Z,927.38
2017-03-31T03:25:27.018Z,927.39
2017-03-31T03:25:55.304Z,927.39
2017-03-31T03:26:23.581Z,927.37
2017-03-31T03:26:51.761Z,927.41
2017-03-31T03:27:19.954Z,927.4
2017-03-31T03:27:48.209Z,927.41
2017-03-31T03:28:16.411Z,927.42
2017-03-31T03:28:44.624Z,927.41
2017-03-31T03:29:12.898Z,927.43
2017-03-31T03:29:40.984Z,927.45
2017-03-31T03:30:09.167Z,927.46
2017-03-31T03:31:20.486Z,927.45
2017-03-31T03:31:48.680Z,927.47
2017-03-31T03:32:16.861Z,927.46
2017-03-31T03:32:45.131Z,927.47
2017-03-31T03:33:13.321Z,927.49
2017-03-31T03:33:41.671Z,927.48
2017-03-31T03:34:09.963Z,927.48
2017-03-31T03:34:38.264Z,927.5
2017-03-31T03:35:06.544Z,927.49
2017-03-31T03:35:34.724Z,927.46
2017-03-31T03:36:02.894Z,927.47
2017-03-31T03:37:14.213Z,927.48
2017-03-31T03:37:42.406Z,927.51
2017-03-31T03:38:10.681Z,927.47
2017-03-31T03:38:38.855Z,927.43
2017-03-31T03:39:07.047Z,927.42
2017-03-31T03:39:35.215Z,927.48
2017-03-31T03:40:03.420Z,927.42
2017-03-31T03:40:31.542Z,927.45
2017-03-31T03:40:59.811Z,927.46
2017-03-31T03:41:27.896Z,927.38
2017-03-31T03:41:56.161Z,927.4
2017-03-31T03:43:07.480Z,927.36
2017-03-31T03:43:35.673Z,927.36
2017-03-31T03:44:03.858Z,927.39
2017-03-31T03:44:32.035Z,927.4
2017-03-31T03:45:00.135Z,927.38
2017-03-31T03:45:28.385Z,927.42
2017-03-31T03:45:56.677Z,927.37
2017-03-31T03:46:24.884Z,927.38
2017-03-31T03:46:53.062Z,927.38
2017-03-31T03:47:21.333Z,927.38
2017-03-31T03:47:49.509Z,927.41
2017-03-31T03:49:00.545Z,927.4
2017-03-31T03:49:28.737Z,927.36
2017-03-31T03:49:56.916Z,927.35
2017-03-31T03:50:25.103Z,927.35
2017-03-31T03:50:53.386Z,927.35
2017-03-31T03:51:21.733Z,927.36
2017-03-31T03:51:49.936Z,927.36
2017-03-31T03:52:17.962Z,927.35
2017-03-31T03:52:46.140Z,927.36
2017-03-31T03:53:14.411Z,927.34
2017-03-31T03:53:42.683Z,927.33
2017-03-31T03:54:53.912Z,927.39
2017-03-31T03:55:22.009Z,927.36
2017-03-31T03:55:50.283Z,927.33
2017-03-31T03:56:18.462Z,927.33
2017-03-31T03:56:46.743Z,927.33
2017-03-31T03:57:14.997Z,927.33
2017-03-31T03:57:43.286Z,927.38
2017-03-31T03:58:11.496Z,927.35
2017-03-31T03:58:39.768Z,927.37
2017-03-31T03:59:08.037Z,927.29
2017-03-31T03:59:36.210Z,927.32
2017-03-31T04:00:47.344Z,927.3
2017-03-31T04:01:15.449Z,927.31
2017-03-31T04:01:43.726Z,927.34
2017-03-31T04:02:11.909Z,927.33
2017-03-31T04:02:40.190Z,927.35
2017-03-31T04:03:08.441Z,927.3
2017-03-31T04:03:36.642Z,927.34
2017-03-31T04:04:04.754Z,927.28
2017-03-31T04:04:32.842Z,927.3
2017-03-31T04:05:00.926Z,927.29
2017-03-31T04:05:29.008Z,927.3
2017-03-31T04:06:40.046Z,927.26
2017-03-31T04:07:08.331Z,927.29
2017-03-31T04:07:36.513Z,927.29
2017-03-31T04:08:04.698Z,927.25
2017-03-31T04:08:32.890Z,927.23
2017-03-31T04:09:01.150Z,927.25
2017-03-31T04:09:29.337Z,927.22
2017-03-31T04:09:57.645Z,927.24
2017-03-31T04:10:25.915Z,927.2
2017-03-31T04:10:54.213Z,927.22
2017-03-31T04:11:22.424Z,927.19
2017-03-31T04:12:33.500Z,927.19
2017-03-31T04:13:01.806Z,927.19
2017-03-31T04:13:29.922Z,927.2
2017-03-31T04:13:58.124Z,927.17
2017-03-31T04:14:26.203Z,927.15
2017-03-31T04:14:54.452Z,927.17
2017-03-31T04:15:22.744Z,927.15
2017-03-31T04:15:51.049Z,927.12
2017-03-31T04:16:19.222Z,927.13
2017-03-31T04:16:47.432Z,927.14
2017-03-31T04:17:15.458Z,927.13
2017-03-31T04:18:26.618Z,927.14
2017-03-31T04:18:54.850Z,927.16
2017-03-31T04:19:23.064Z,927.15
2017-03-31T04:19:51.175Z,927.15
2017-03-31T04:20:19.345Z,927.21
2017-03-31T04:20:47.498Z,927.12
2017-03-31T04:21:15.696Z,927.09
2017-03-31T04:21:44.000Z,927.1
2017-03-31T04:22:12.177Z,927.07
2017-03-31T04:22:40.476Z,927.07
2017-03-31T04:23:08.777Z,927.09
2017-03-31T04:24:20.025Z,927.07
2017-03-31T04:24:48.333Z,927.07
2017-03-31T04:25:16.628Z,927.05
2017-03-31T04:25:44.927Z,927.06
2017-03-31T04:26:13.192Z,927.05
2017-03-31T04:26:41.157Z,927.05
2017-03-31T04:27:09.354Z,927.01
2017-03-31T04:27:37.660Z,927
2017-03-31T04:28:05.827Z,926.97
2017-03-31T04:28:34.128Z,927
2017-03-31T04:29:02.430Z,926.98
2017-03-31T04:30:13.770Z,926.96
2017-03-31T04:30:42.074Z,926.97
2017-03-31T04:31:10.276Z,927.02
2017-03-31T04:31:38.475Z,927.02
2017-03-31T04:32:06.547Z,927.01
2017-03-31T04:32:34.607Z,927
2017-03-31T04:33:02.803Z,926.99
2017-03-31T04:33:31.010Z,926.99
2017-03-31T04:33:59.175Z,926.99
2017-03-31T04:34:27.377Z,926.98
2017-03-31T04:34:55.585Z,926.97
2017-03-31T04:36:06.839Z,927.01
2017-03-31T04:36:34.958Z,926.98
2017-03-31T04:37:03.250Z,926.97
2017-03-31T04:37:31.451Z,926.93
2017-03-31T04:37:59.626Z,926.95
2017-03-31T04:38:27.873Z,926.93
2017-03-31T04:38:56.166Z,926.9
2017-03-31T04:39:24.475Z,926.86
2017-03-31T04:39:52.550Z,926.85
2017-03-31T04:40:20.760Z,926.89
2017-03-31T04:40:49.065Z,926.91
2017-03-31T04:42:00.311Z,926.92
2017-03-31T04:42:28.426Z,926.9
2017-03-31T04:42:56.725Z,926.89
2017-03-31T04:43:24.930Z,926.89
2017-03-31T04:43:53.197Z,926.91
2017-03-31T04:44:21.441Z,926.9
2017-03-31T04:44:49.642Z,926.87
2017-03-31T04:45:17.949Z,926.86
2017-03-31T04:45:46.116Z,926.88
2017-03-31T04:46:14.318Z,926.88
2017-03-31T04:46:42.624Z,926.88
2017-03-31T04:47:53.871Z,926.85
2017-03-31T04:48:22.075Z,926.84
2017-03-31T04:48:50.281Z,926.83
2017-03-31T04:49:18.578Z,926.8
2017-03-31T04:49:46.565Z,926.83
2017-03-31T04:50:14.715Z,926.73
2017-03-31T04:50:43.016Z,926.75
2017-03-31T04:51:11.308Z,926.71
2017-03-31T04:51:39.383Z,926.77
2017-03-31T04:52:07.494Z,926.72
2017-03-31T04:52:35.802Z,926.69
2017-03-31T04:53:47.056Z,926.71
2017-03-31T04:54:15.173Z,926.69
2017-03-31T04:54:43.281Z,926.71
2017-03-31T04:55:11.485Z,926.69
2017-03-31T04:55:39.654Z,926.7
2017-03-31T04:56:07.903Z,926.69
2017-03-31T04:56:36.012Z,926.7
2017-03-31T04:57:04.310Z,926.71
2017-03-31T04:57:32.487Z,926.66
2017-03-31T04:58:00.700Z,926.72
2017-03-31T04:58:29.001Z,926.68
2017-03-31T04:59:40.254Z,926.71
2017-03-31T05:00:08.466Z,926.68
2017-03-31T05:00:36.662Z,926.66
2017-03-31T05:01:04.867Z,926.66
2017-03-31T05:01:32.948Z,926.66
2017-03-31T05:02:01.106Z,926.65
2017-03-31T05:02:29.312Z,926.66
2017-03-31T05:02:57.619Z,926.69
2017-03-31T05:03:25.788Z,926.68
2017-03-31T05:03:53.995Z,926.66
2017-03-31T05:04:22.300Z,926.68
2017-03-31T05:05:33.457Z,926.65
2017-03-31T05:06:01.672Z,926.68
2017-03-31T05:06:29.966Z,926.65
2017-03-31T05:06:58.166Z,926.65
2017-03-31T05:07:26.243Z,926.69
2017-03-31T05:07:54.405Z,926.68
2017-03-31T05:08:22.513Z,926.68
2017-03-31T05:08:50.807Z,926.65
2017-03-31T05:09:18.979Z,926.66
2017-03-31T05:09:47.179Z,926.68
2017-03-31T05:10:15.483Z,926.66
2017-03-31T05:11:26.550Z,926.65
2017-03-31T05:11:54.673Z,926.65
2017-03-31T05:12:22.876Z,926.68
2017-03-31T05:12:51.070Z,926.66
2017-03-31T05:13:19.241Z,926.7
2017-03-31T05:13:47.493Z,926.69
2017-03-31T05:14:15.600Z,926.68
2017-03-31T05:14:43.805Z,926.68
2017-03-31T05:15:11.879Z,926.66
2017-03-31T05:15:40.181Z,926.66
2017-03-31T05:16:08.393Z,926.69
2017-03-31T05:17:19.642Z,926.69
2017-03-31T05:17:47.753Z,926.7
2017-03-31T05:18:16.048Z,926.68
2017-03-31T05:18:44.343Z,926.66
2017-03-31T05:19:12.421Z,926.68
2017-03-31T05:19:40.513Z,926.66
2017-03-31T05:20:08.624Z,926.65
2017-03-31T05:20:36.839Z,926.68
2017-03-31T05:21:04.919Z,926.68
2017-03-31T05:21:33.119Z,926.66
2017-03-31T05:22:01.423Z,926.63
2017-03-31T05:23:12.485Z,926.67
2017-03-31T05:23:40.598Z,926.67
2017-03-31T05:24:08.896Z,926.64
2017-03-31T05:24:37.196Z,926.62
2017-03-31T05:25:05.186Z,926.62
2017-03-31T05:25:33.339Z,926.6
2017-03-31T05:26:01.446Z,926.62
2017-03-31T05:26:29.741Z,926.64
2017-03-31T05:26:58.005Z,926.65
2017-03-31T05:27:26.306Z,926.59
2017-03-31T05:27:54.606Z,926.6
2017-03-31T05:29:05.950Z,926.59
2017-03-31T05:29:34.068Z,926.61
2017-03-31T05:30:02.390Z,926.61
2017-03-31T05:30:30.657Z,926.64
2017-03-31T05:30:58.829Z,926.58
2017-03-31T05:31:27.072Z,926.58
2017-03-31T05:31:55.270Z,926.57
2017-03-31T05:32:23.573Z,926.57
2017-03-31T05:32:51.847Z,926.55
2017-03-31T05:33:20.163Z,926.55
2017-03-31T05:33:48.421Z,926.58
2017-03-31T05:34:59.757Z,926.53
2017-03-31T05:35:27.788Z,926.57
2017-03-31T05:35:55.976Z,926.58
2017-03-31T05:36:24.148Z,926.57
2017-03-31T05:36:52.318Z,926.58
2017-03-31T05:37:20.577Z,926.58
2017-03-31T05:37:48.772Z,926.62
2017-03-31T05:38:17.077Z,926.6
2017-03-31T05:38:45.265Z,926.57
2017-03-31T05:39:13.357Z,926.58
2017-03-31T05:39:41.637Z,926.61
2017-03-31T05:40:52.976Z,926.57
2017-03-31T05:41:21.289Z,926.6
2017-03-31T05:41:49.479Z,926.62
2017-03-31T05:42:17.661Z,926.6
2017-03-31T05:42:45.833Z,926.6
2017-03-31T05:43:13.908Z,926.64
2017-03-31T05:43:42.102Z,926.66
2017-03-31T05:44:10.405Z,926.65
2017-03-31T05:44:38.691Z,926.67
2017-03-31T05:45:06.790Z,926.69
2017-03-31T05:45:35.074Z,926.71
2017-03-31T05:46:46.315Z,926.72
2017-03-31T05:47:14.631Z,926.72
2017-03-31T05:47:42.825Z,926.75
2017-03-31T05:48:11.096Z,926.7
2017-03-31T05:48:39.261Z,926.72
2017-03-31T05:49:07.517Z,926.71
2017-03-31T05:49:35.805Z,926.72
2017-03-31T05:50:04.015Z,926.67
2017-03-31T05:50:32.196Z,926.67
2017-03-31T05:51:00.296Z,926.67
2017-03-31T05:51:28.589Z,926.65
2017-03-31T05:52:39.745Z,926.65
2017-03-31T05:53:07.967Z,926.7
2017-03-31T05:53:36.163Z,926.66
2017-03-31T05:54:04.431Z,926.69
2017-03-31T05:54:32.602Z,926.64
2017-03-31T05:55:00.953Z,926.67
2017-03-31T05:55:29.149Z,926.65
2017-03-31T05:55:57.452Z,926.67
2017-03-31T05:56:25.641Z,926.66
2017-03-31T05:56:53.648Z,926.67
2017-03-31T05:57:21.836Z,926.69
2017-03-31T05:58:33.083Z,926.66
2017-03-31T05:59:01.301Z,926.65
2017-03-31T05:59:29.592Z,926.64
2017-03-31T05:59:57.857Z,926.68
2017-03-31T06:00:25.842Z,926.62
2017-03-31T06:00:54.196Z,926.6
2017-03-31T06:01:22.394Z,926.64
2017-03-31T06:01:50.694Z,926.65
2017-03-31T06:02:18.976Z,926.63
2017-03-31T06:02:47.262Z,926.66
2017-03-31T06:03:15.450Z,926.7
2017-03-31T06:04:26.694Z,926.71
2017-03-31T06:04:55.009Z,926.64
2017-03-31T06:05:23.204Z,926.65
2017-03-31T06:05:51.377Z,926.65
2017-03-31T06:06:19.547Z,926.67
2017-03-31T06:06:47.709Z,926.69
2017-03-31T06:07:15.717Z,926.69
2017-03-31T06:07:43.834Z,926.7
2017-03-31T06:08:12.114Z,926.71
2017-03-31T06:08:40.310Z,926.66
2017-03-31T06:09:08.498Z,926.7
2017-03-31T06:10:19.686Z,926.7
2017-03-31T06:10:47.999Z,926.68
2017-03-31T06:11:16.190Z,926.67
2017-03-31T06:11:44.367Z,926.68
2017-03-31T06:12:12.546Z,926.65
2017-03-31T06:12:40.707Z,926.65
2017-03-31T06:13:08.903Z,926.67
2017-03-31T06:13:37.021Z,926.63
2017-03-31T06:14:05.211Z,926.65
2017-03-31T06:14:33.496Z,926.64
2017-03-31T06:15:01.684Z,926.61
2017-03-31T06:16:12.933Z,926.64
2017-03-31T06:16:41.058Z,926.61
2017-03-31T06:17:09.254Z,926.63
2017-03-31T06:17:37.334Z,926.58
2017-03-31T06:18:05.326Z,926.59
2017-03-31T06:18:33.577Z,926.58
2017-03-31T06:19:01.881Z,926.6
2017-03-31T06:19:30.181Z,926.57
2017-03-31T06:19:58.369Z,926.52
2017-03-31T06:20:26.626Z,926.51
2017-03-31T06:20:54.820Z,926.52
2017-03-31T06:22:06.047Z,926.53
2017-03-31T06:22:34.330Z,926.54
2017-03-31T06:23:02.607Z,926.51
2017-03-31T06:23:30.878Z,926.53
2017-03-31T06:23:59.013Z,926.51
2017-03-31T06:24:27.079Z,926.53
2017-03-31T06:24:55.287Z,926.55
2017-03-31T06:25:23.594Z,926.53
2017-03-31T06:25:51.783Z,926.51
2017-03-31T06:26:19.949Z,926.51
2017-03-31T06:26:48.240Z,926.56
2017-03-31T06:27:59.476Z,926.54
2017-03-31T06:28:27.757Z,926.58
2017-03-31T06:28:55.934Z,926.6
2017-03-31T06:29:24.112Z,926.59
2017-03-31T06:29:52.305Z,926.59
2017-03-31T06:30:20.647Z,926.59
2017-03-31T06:30:48.950Z,926.57
2017-03-31T06:31:17.072Z,926.58
2017-03-31T06:31:45.362Z,926.58
2017-03-31T06:32:13.625Z,926.56
2017-03-31T06:32:41.822Z,926.6
2017-03-31T06:33:52.957Z,926.54
2017-03-31T06:34:21.235Z,926.56
2017-03-31T06:34:49.325Z,926.59
2017-03-31T06:35:17.594Z,926.56
2017-03-31T06:35:45.788Z,926.55
2017-03-31T06:36:13.952Z,926.48
2017-03-31T06:36:42.158Z,926.54
2017-03-31T06:37:10.381Z,926.53
2017-03-31T06:37:38.660Z,926.58
2017-03-31T06:38:06.824Z,926.56
2017-03-31T06:38:35.021Z,926.53
2017-03-31T06:39:46.155Z,926.57
2017-03-31T06:40:14.431Z,926.57
2017-03-31T06:40:42.700Z,926.57
2017-03-31T06:41:10.876Z,926.55
2017-03-31T06:41:39.160Z,926.53
2017-03-31T06:42:07.414Z,926.57